Time;durP1;ratioP1;P1;durP2;ratioP2;P2;SDS_P1;SDS_P2;PMS_P1;PMS_P2;Temp;Humidity;BMP_temperature;BMP_pressure;BME280_temperature;BME280_humidity;BME280_pressure;Samples;Min_cycle;Max_cycle;Signal;HPM_P1;HPM_P2
2023/12/15 00:03:07;;;;;;;3.60;2.92;;;;;;;6.96;83.87;100359.50;7143504;40;20235;31
2023/12/15 00:08:43;;;;;;;3.83;2.67;;;;;;;6.85;84.43;100364.81;7099039;40;20316;31
2023/12/15 00:14:18;;;;;;;4.15;2.70;;;;;;;6.82;84.39;100372.22;7071639;41;20304;31
2023/12/15 00:19:38;;;;;;;2.60;2.40;;;;;;;6.75;84.45;100382.56;7099651;40;20375;31
2023/12/15 00:25:13;;;;;;;3.70;2.70;;;;;;;6.65;83.58;100386.88;7116553;40;20382;31
2023/12/15 00:30:48;;;;;;;4.87;2.40;;;;;;;6.71;85.38;100400.66;7130847;40;20314;31
2023/12/15 00:36:21;;;;;;;3.25;2.75;;;;;;;6.71;84.91;100413.22;7186609;40;20262;31
2023/12/15 00:41:57;;;;;;;3.60;2.90;;;;;;;6.63;85.10;100410.22;7146360;40;20375;31
2023/12/15 00:47:32;;;;;;;3.33;2.47;;;;;;;6.68;85.69;100405.38;7148449;40;20247;31
2023/12/15 00:52:52;;;;;;;3.30;2.87;;;;;;;6.77;85.41;100424.34;7121664;40;20244;31
2023/12/15 00:58:27;;;;;;;4.10;3.00;;;;;;;6.73;85.57;100424.66;7126721;40;20326;31
2023/12/15 01:03:48;;;;;;;3.85;3.00;;;;;;;6.79;85.82;100432.28;7143983;40;20328;31
2023/12/15 01:09:09;;;;;;;4.60;3.20;;;;;;;6.84;85.36;100437.28;7184658;40;20373;31
2023/12/15 01:14:43;;;;;;;4.13;3.33;;;;;;;6.81;85.24;100427.63;7175926;40;20252;31
2023/12/15 01:20:17;;;;;;;4.40;3.80;;;;;;;6.78;85.93;100435.91;7147386;40;20250;31
2023/12/15 01:25:38;;;;;;;6.30;4.00;;;;;;;6.81;86.08;100443.72;7154269;40;20385;31
2023/12/15 01:31:14;;;;;;;3.65;3.30;;;;;;;6.80;85.20;100447.37;7174350;40;20336;31
2023/12/15 01:36:37;;;;;;;4.65;3.80;;;;;;;6.86;85.98;100464.81;7187345;40;20238;31
2023/12/15 01:41:55;;;;;;;4.80;4.10;;;;;;;6.86;86.53;100465.69;7178644;40;20281;31
2023/12/15 01:52:35;;;;;;;6.97;4.47;;;;;;;6.86;86.86;100481.75;7195383;40;20270;31
2023/12/15 01:58:11;;;;;;;4.50;4.00;;;;;;;6.87;86.08;100479.94;7202250;40;20317;31
2023/12/15 02:03:45;;;;;;;6.00;4.00;;;;;;;6.84;85.25;100489.06;7202822;40;20277;31
2023/12/15 02:09:21;;;;;;;5.60;3.60;;;;;;;6.82;86.37;100484.75;7176580;40;20300;31
2023/12/15 02:14:57;;;;;;;6.25;4.20;;;;;;;6.80;85.06;100487.56;7146950;40;20428;31
2023/12/15 02:20:18;;;;;;;6.20;4.60;;;;;;;6.82;85.24;100501.69;7159252;40;20473;31
2023/12/15 02:25:54;;;;;;;5.63;4.40;;;;;;;6.78;85.89;100503.75;7185102;40;20376;31
2023/12/15 02:31:29;;;;;;;5.90;4.70;;;;;;;6.76;85.95;100505.66;7225049;40;20249;31
2023/12/15 02:37:04;;;;;;;7.90;4.65;;;;;;;6.72;86.16;100498.81;7197249;40;20380;31
2023/12/15 02:47:42;;;;;;;6.50;4.70;;;;;;;6.60;86.69;100513.09;7121638;40;20721;31
2023/12/15 02:53:03;;;;;;;7.07;4.80;;;;;;;6.65;86.94;100521.66;7149835;40;20531;31
2023/12/15 02:58:24;;;;;;;6.30;4.65;;;;;;;6.68;87.45;100536.66;7214251;40;20315;31
2023/12/15 03:04:01;;;;;;;9.13;5.77;;;;;;;6.60;85.66;100520.28;7277522;40;20255;31
2023/12/15 03:09:35;;;;;;;9.60;6.73;;;;;;;6.53;87.86;100535.09;7240065;40;20336;31
2023/12/15 03:15:11;;;;;;;10.20;7.80;;;;;;;6.44;87.78;100544.63;7162843;40;21319;31
2023/12/15 03:20:47;;;;;;;10.65;7.50;;;;;;;6.41;88.23;100541.28;7158814;40;20266;31
2023/12/15 03:26:06;;;;;;;9.10;7.17;;;;;;;6.45;88.02;100543.62;7160200;40;20389;31
2023/12/15 03:31:42;;;;;;;11.93;8.07;;;;;;;6.38;88.38;100560.25;7147064;40;20244;31
2023/12/15 03:37:21;;;;;;;10.03;7.43;;;;;;;6.43;88.36;100550.06;7139241;40;20326;31
2023/12/15 03:42:41;;;;;;;10.50;8.03;;;;;;;6.44;88.57;100547.31;7160189;40;20248;31
2023/12/15 03:48:17;;;;;;;12.20;8.60;;;;;;;6.44;88.48;100554.47;7160615;40;20257;31
2023/12/15 03:53:53;;;;;;;11.90;8.97;;;;;;;6.36;88.46;100549.66;7111527;40;20251;31
2023/12/15 03:59:13;;;;;;;11.60;8.90;;;;;;;6.41;88.40;100554.66;7173967;40;20257;31
2023/12/15 04:04:48;;;;;;;12.70;8.80;;;;;;;6.37;88.97;100563.88;7274771;40;20251;31
2023/12/15 04:10:25;;;;;;;14.03;10.50;;;;;;;6.36;87.99;100573.75;7279544;40;21436;31
2023/12/15 04:15:57;;;;;;;12.80;9.57;;;;;;;6.38;88.79;100576.31;7044881;40;21108;31
2023/12/15 04:21:17;;;;;;;13.47;9.27;;;;;;;6.39;89.14;100589.59;7247618;40;20363;31
2023/12/15 04:26:53;;;;;;;13.93;9.60;;;;;;;6.30;89.21;100582.19;7221247;40;20355;31
2023/12/15 04:32:13;;;;;;;12.37;9.83;;;;;;;6.36;89.35;100587.16;7201398;40;20258;31
2023/12/15 04:37:49;;;;;;;13.53;9.40;;;;;;;6.32;88.94;100597.19;7169427;40;20317;31
2023/12/15 04:43:23;;;;;;;15.00;8.80;;;;;;;6.33;89.70;100601.59;7177252;40;20345;31
2023/12/15 04:48:43;;;;;;;15.30;9.43;;;;;;;6.39;90.02;100613.72;7152419;40;20300;31
2023/12/15 04:54:03;;;;;;;12.80;9.40;;;;;;;6.46;89.20;100627.50;7155736;40;20246;31
2023/12/15 04:59:41;;;;;;;15.67;10.20;;;;;;;6.47;90.06;100637.28;7173923;40;20281;31
2023/12/15 05:05:15;;;;;;;14.80;9.70;;;;;;;6.49;90.22;100649.63;7168344;40;20338;31
2023/12/15 05:10:35;;;;;;;14.65;9.75;;;;;;;6.45;90.45;100644.56;7194822;40;20246;31
2023/12/15 05:16:11;;;;;;;14.70;10.23;;;;;;;6.46;89.73;100640.91;7209244;40;21548;31
2023/12/15 05:21:46;;;;;;;14.25;10.10;;;;;;;6.55;90.56;100651.00;7199119;40;20247;31
2023/12/15 05:27:21;;;;;;;14.57;9.90;;;;;;;6.62;90.32;100661.19;7208456;40;20415;31
2023/12/15 05:32:57;;;;;;;12.93;9.80;;;;;;;6.60;90.61;100662.25;7237582;40;20245;31
2023/12/15 05:38:32;;;;;;;12.83;10.07;;;;;;;6.60;91.04;100689.91;7167280;40;20247;31
2023/12/15 05:44:07;;;;;;;15.67;10.17;;;;;;;6.60;91.15;100705.97;7171907;40;20260;31
2023/12/15 05:49:43;;;;;;;12.90;9.95;;;;;;;6.59;90.85;100712.28;7182093;40;20245;31
2023/12/15 05:55:04;;;;;;;15.90;10.10;;;;;;;6.62;91.08;100709.41;7171152;40;20396;31
2023/12/15 06:00:39;;;;;;;13.90;9.80;;;;;;;6.61;91.45;100728.25;7204456;40;20520;31
2023/12/15 06:06:17;;;;;;;12.85;9.55;;;;;;;6.67;91.70;100739.41;7229516;40;20242;31
2023/12/15 06:11:55;;;;;;;13.85;9.80;;;;;;;6.69;92.01;100734.81;7256641;40;20242;31
2023/12/15 06:17:14;;;;;;;14.90;10.00;;;;;;;6.69;91.33;100748.22;7209412;40;20388;31
2023/12/15 06:22:53;;;;;;;14.00;9.90;;;;;;;6.67;90.77;100746.63;7249728;40;20543;31
2023/12/15 06:28:12;;;;;;;12.10;9.50;;;;;;;6.72;91.19;100749.81;7205089;40;20267;31
2023/12/15 06:33:47;;;;;;;11.73;8.98;;;;;;;6.71;91.04;100761.50;7194466;40;20278;31
2023/12/15 06:44:28;;;;;;;10.85;8.70;;;;;;;6.73;91.18;100771.16;7218330;40;20407;31
2023/12/15 06:50:05;;;;;;;11.75;9.00;;;;;;;6.73;90.92;100762.25;7221317;40;20436;31
2023/12/15 06:55:25;;;;;;;10.10;8.40;;;;;;;6.75;91.75;100776.41;7177033;40;20324;31
2023/12/15 07:01:02;;;;;;;15.30;11.85;;;;;;;6.74;91.09;100777.38;7217840;40;20246;31
2023/12/15 07:06:37;;;;;;;20.40;13.60;;;;;;;6.76;92.25;100789.69;7228908;40;20242;31
2023/12/15 07:11:58;;;;;;;29.50;18.50;;;;;;;6.78;91.52;100792.28;7248653;40;20260;31
2023/12/15 07:17:34;;;;;;;31.13;18.37;;;;;;;6.74;91.74;100798.81;7199928;40;20254;31
2023/12/15 07:23:09;;;;;;;39.20;21.50;;;;;;;6.71;90.49;100810.56;7200285;40;20353;31
2023/12/15 07:28:45;;;;;;;61.00;29.70;;;;;;;6.75;90.52;100819.28;7187034;40;20250;31
2023/12/15 07:34:22;;;;;;;21.93;14.97;;;;;;;6.70;91.65;100826.78;7161700;40;20295;31
2023/12/15 07:39:44;;;;;;;16.10;11.60;;;;;;;6.68;91.60;100836.72;7185808;40;20261;31
2023/12/15 07:45:04;;;;;;;14.00;11.20;;;;;;;6.75;92.23;100846.94;7216649;40;20250;31
2023/12/15 07:50:41;;;;;;;13.50;10.40;;;;;;;6.79;91.36;100855.62;7233779;40;20379;31
2023/12/15 07:56:17;;;;;;;15.97;10.67;;;;;;;6.77;92.15;100861.09;7265972;40;20234;31
2023/12/15 08:01:55;;;;;;;12.30;10.20;;;;;;;6.81;91.40;100867.09;7224102;40;20323;31
2023/12/15 08:07:30;;;;;;;13.35;10.05;;;;;;;6.79;92.12;100866.34;7209713;40;20221;31
2023/12/15 08:12:51;;;;;;;14.45;9.90;;;;;;;6.80;92.48;100874.28;7166262;40;20400;31
2023/12/15 08:18:11;;;;;;;11.87;9.43;;;;;;;6.79;91.94;100871.72;7178139;40;20410;31
2023/12/15 08:23:47;;;;;;;10.30;9.10;;;;;;;6.78;91.99;100881.56;7177629;40;20261;31
2023/12/15 08:29:22;;;;;;;11.80;8.85;;;;;;;6.74;91.65;100882.75;7176236;40;20486;31
2023/12/15 08:34:43;;;;;;;12.90;9.10;;;;;;;6.79;92.53;100891.34;7164009;40;20259;31
2023/12/15 08:40:19;;;;;;;9.95;8.00;;;;;;;6.79;92.71;100899.38;7152842;40;20366;31
2023/12/15 08:45:40;;;;;;;9.95;7.80;;;;;;;6.86;92.01;100917.72;7167846;40;20498;31
2023/12/15 08:51:00;;;;;;;10.80;8.20;;;;;;;6.93;92.18;100921.72;7162774;40;20408;31
2023/12/15 08:56:33;;;;;;;12.40;8.77;;;;;;;7.00;92.25;100920.34;7166004;40;20325;31
2023/12/15 09:01:54;;;;;;;10.60;8.20;;;;;;;7.04;92.24;100909.31;7195160;40;20297;31
2023/12/15 09:07:14;;;;;;;11.45;8.20;;;;;;;7.00;92.37;100905.13;7214368;40;20414;31
2023/12/15 09:12:50;;;;;;;9.50;7.80;;;;;;;6.94;92.60;100910.03;7203048;40;20366;31
2023/12/15 09:18:07;;;;;;;12.27;7.13;;;;;;;6.98;91.97;100941.03;7231517;40;20231;31
2023/12/15 09:23:40;;;;;;;7.57;6.37;;;;;;;7.02;92.42;100932.69;7231420;40;20237;31
2023/12/15 09:29:18;;;;;;;10.60;8.00;;;;;;;7.10;91.87;100934.88;7245833;40;20241;31
2023/12/15 09:34:36;;;;;;;8.07;5.83;;;;;;;7.19;92.46;100951.22;7207460;40;20333;31
2023/12/15 09:40:11;;;;;;;6.07;5.47;;;;;;;7.22;91.44;100969.78;7197688;40;20265;31
2023/12/15 09:45:46;;;;;;;9.80;6.70;;;;;;;7.21;92.16;100973.41;7156622;40;20274;31
2023/12/15 09:56:26;;;;;;;9.35;6.05;;;;;;;7.23;91.30;100987.59;7138261;40;20271;31
2023/12/15 10:02:02;;;;;;;9.13;6.27;;;;;;;7.26;91.57;101002.59;7185579;40;20426;31
2023/12/15 10:12:41;;;;;;;7.77;5.07;;;;;;;7.30;90.87;101013.97;7158878;40;20267;31
2023/12/15 10:18:14;;;;;;;7.00;4.33;;;;;;;7.34;91.00;101020.88;7186350;40;20412;31
2023/12/15 10:28:54;;;;;;;6.65;4.40;;;;;;;7.40;90.62;101029.38;7215646;40;20259;31
2023/12/15 10:34:31;;;;;;;5.23;4.20;;;;;;;7.42;90.49;101023.91;7156284;40;20324;31
2023/12/15 10:40:06;;;;;;;5.13;4.20;;;;;;;7.36;89.83;101018.97;7153265;40;20309;31
2023/12/15 10:45:39;;;;;;;8.73;5.07;;;;;;;7.40;90.24;101017.78;7178902;40;20247;31
2023/12/15 10:51:15;;;;;;;6.50;4.50;;;;;;;7.45;91.05;101023.72;7178244;40;20243;31
2023/12/15 10:56:51;;;;;;;7.10;4.60;;;;;;;7.50;90.51;101032.31;6963706;40;21146;31
2023/12/15 11:07:40;;;;;;;5.97;3.80;;;;;;;7.54;89.70;101042.75;7165744;40;20291;31
2023/12/15 11:18:19;;;;;;;13.77;10.20;;;;;;;7.55;90.00;101044.44;7199483;40;20270;31
2023/12/15 11:29:20;;;;;;;14.77;9.33;;;;;;;7.64;89.64;101046.53;7222519;40;20625;31
2023/12/15 11:40:00;;;;;;;5.10;3.50;;;;;;;7.59;89.75;101045.97;7203560;40;20396;31
2023/12/15 11:50:36;;;;;;;4.20;3.16;;;;;;;7.63;88.91;101054.69;7210057;40;20455;31
2023/12/15 11:56:11;;;;;;;4.90;3.50;;;;;;;7.69;89.55;101059.63;7257858;40;20249;31
2023/12/15 12:01:45;;;;;;;5.95;3.60;;;;;;;7.66;89.19;101052.66;7261917;39;20390;31
2023/12/15 12:07:21;;;;;;;11.33;6.17;;;;;;;7.73;89.54;101042.34;7238901;40;20420;31
2023/12/15 12:12:38;;;;;;;5.07;3.63;;;;;;;7.79;88.75;101047.31;7128482;40;20341;31
2023/12/15 12:23:17;;;;;;;6.00;4.35;;;;;;;7.78;89.29;101040.22;7145323;40;20343;31
2023/12/15 12:33:39;;;;;;;6.40;4.63;;;;;;;7.88;89.76;101052.06;7228516;40;20281;31
2023/12/15 12:39:13;;;;;;;6.40;4.67;;;;;;;7.87;88.81;101053.03;7218681;40;20329;31
2023/12/15 12:44:33;;;;;;;6.53;4.10;;;;;;;7.90;89.48;101060.87;7185552;40;20380;31
2023/12/15 12:50:09;;;;;;;8.00;3.90;;;;;;;7.89;89.67;101058.31;7199241;40;20258;31
2023/12/15 13:00:44;;;;;;;5.15;3.75;;;;;;;7.93;89.28;101071.41;7226360;40;20262;31
2023/12/15 13:11:09;;;;;;;4.70;3.20;;;;;;;8.02;88.69;101068.09;7250029;40;20284;31
2023/12/15 13:21:50;;;;;;;5.50;2.90;;;;;;;7.99;87.94;101068.28;7220600;40;20385;31
2023/12/15 13:27:25;;;;;;;5.80;3.10;;;;;;;8.02;88.19;101080.66;7277231;40;20251;31
2023/12/15 13:38:39;;;;;;;4.50;3.20;;;;;;;8.01;88.61;101082.50;7215915;40;20452;31
2023/12/15 13:44:00;;;;;;;7.00;3.00;;;;;;;8.09;89.20;101098.94;7218498;40;20231;31
2023/12/15 13:49:19;;;;;;;6.87;3.20;;;;;;;8.10;89.01;101105.19;7168416;40;20267;31
2023/12/15 13:54:54;;;;;;;8.57;3.80;;;;;;;8.13;89.05;101104.97;7174440;40;20355;31
2023/12/15 14:00:27;;;;;;;10.70;5.73;;;;;;;8.10;89.54;101100.66;7161973;40;20301;31
2023/12/15 14:06:04;;;;;;;6.80;3.73;;;;;;;8.13;89.19;101111.19;7116967;40;20240;31
2023/12/15 14:11:39;;;;;;;6.00;3.35;;;;;;;8.13;89.22;101097.75;7113107;40;20244;31
2023/12/15 14:17:15;;;;;;;4.60;3.47;;;;;;;8.18;89.71;101101.97;7194545;40;20309;31
2023/12/15 14:22:49;;;;;;;7.83;3.77;;;;;;;8.14;89.58;101112.06;7198527;40;20337;31
2023/12/15 14:28:23;;;;;;;6.30;3.55;;;;;;;8.08;90.62;101123.19;7156098;40;20267;31
2023/12/15 14:33:44;;;;;;;6.00;3.00;;;;;;;8.09;90.00;101119.56;7140975;40;20263;31
2023/12/15 14:39:19;;;;;;;5.10;3.30;;;;;;;7.99;91.10;101103.19;7158204;40;20307;31
2023/12/15 14:44:55;;;;;;;5.05;3.55;;;;;;;8.00;90.62;101120.19;7102917;41;20326;31
2023/12/15 14:50:36;;;;;;;3.20;2.70;;;;;;;8.05;90.90;101126.09;7152181;40;20409;31
2023/12/15 14:56:08;;;;;;;6.10;3.80;;;;;;;8.05;90.83;101118.91;7177854;40;20266;31
2023/12/15 15:01:41;;;;;;;4.90;3.40;;;;;;;8.01;90.83;101116.53;7167967;40;20289;31
2023/12/15 15:07:16;;;;;;;5.50;4.10;;;;;;;7.98;91.46;101114.06;7214213;40;20240;31
2023/12/15 15:12:51;;;;;;;5.80;4.47;;;;;;;7.95;91.40;101139.28;7248798;40;20246;31
2023/12/15 15:18:27;;;;;;;7.30;4.93;;;;;;;7.94;91.85;101160.88;7206683;40;20277;31
2023/12/15 15:23:48;;;;;;;6.30;4.55;;;;;;;7.93;92.20;101173.44;7187078;40;20325;31
2023/12/15 15:29:09;;;;;;;6.30;4.07;;;;;;;7.88;91.40;101182.75;7194938;40;20375;31
2023/12/15 15:34:45;;;;;;;6.67;4.00;;;;;;;7.79;92.33;101180.66;7204081;40;20250;31
2023/12/15 15:40:07;;;;;;;9.25;5.70;;;;;;;7.87;92.82;101199.81;7196912;40;20238;31
2023/12/15 15:45:42;;;;;;;9.77;6.97;;;;;;;7.88;92.05;101207.78;7156864;40;20369;31
2023/12/15 15:51:20;;;;;;;15.13;9.93;;;;;;;7.86;92.30;101190.03;7176020;40;20242;31
2023/12/15 15:56:52;;;;;;;12.87;8.60;;;;;;;7.81;91.96;101198.38;7115554;41;20262;31
2023/12/15 16:02:28;;;;;;;14.37;9.73;;;;;;;7.87;92.55;101194.44;7156049;40;20271;31
2023/12/15 16:08:04;;;;;;;11.30;8.50;;;;;;;7.87;91.70;101195.31;7186292;40;20243;31
2023/12/15 16:13:24;;;;;;;12.05;9.20;;;;;;;7.89;92.78;101196.09;7186549;40;20391;31
2023/12/15 16:18:46;;;;;;;10.50;6.10;;;;;;;7.83;92.21;101211.72;7217877;40;20379;31
2023/12/15 16:24:17;;;;;;;6.10;5.00;;;;;;;7.81;92.61;101208.28;7198782;40;20258;31
2023/12/15 16:34:42;;;;;;;6.20;4.60;;;;;;;7.88;92.77;101247.19;7256030;40;20355;31
2023/12/15 16:40:19;;;;;;;3.55;3.20;;;;;;;7.83;91.88;101241.25;7221506;40;20268;31
2023/12/15 16:50:43;;;;;;;4.30;3.60;;;;;;;7.91;92.46;101260.41;7256151;40;20266;31
2023/12/15 16:56:20;;;;;;;6.15;4.45;;;;;;;7.84;92.29;101243.84;7230938;40;21424;31
2023/12/15 17:01:40;;;;;;;6.80;5.10;;;;;;;7.85;92.72;101255.44;7233431;40;20697;31
2023/12/15 17:07:15;;;;;;;7.07;5.40;;;;;;;7.78;92.76;101256.78;7235151;40;20480;31
2023/12/15 17:12:51;;;;;;;5.10;4.30;;;;;;;7.77;93.25;101285.44;7217600;40;20234;31
2023/12/15 17:18:26;;;;;;;9.70;6.50;;;;;;;7.76;92.64;101305.22;7129895;40;20248;31
2023/12/15 17:23:58;;;;;;;12.63;8.37;;;;;;;7.79;93.44;101293.41;7148011;40;20324;31
2023/12/15 17:29:35;;;;;;;21.03;15.70;;;;;;;7.82;93.36;101301.25;7160750;40;20278;31
2023/12/15 17:35:10;;;;;;;6.90;5.20;;;;;;;7.76;92.20;101290.94;7160417;40;20782;31
2023/12/15 17:40:45;;;;;;;5.40;4.70;;;;;;;7.77;93.16;101306.09;7157863;40;20394;31
2023/12/15 17:46:23;;;;;;;4.60;4.10;;;;;;;7.80;93.38;101296.00;7197786;40;20931;31
2023/12/15 17:51:43;;;;;;;5.50;4.33;;;;;;;7.81;92.93;101297.72;7218178;40;20505;31
2023/12/15 18:02:26;;;;;;;5.37;4.47;;;;;;;7.83;93.63;101316.41;7228972;40;20253;31
2023/12/15 18:07:44;;;;;;;6.00;4.55;;;;;;;7.85;92.99;101336.84;7223922;40;20341;31
2023/12/15 18:13:02;;;;;;;4.90;4.30;;;;;;;7.93;93.49;101364.06;7239108;40;20390;31
2023/12/15 18:18:38;;;;;;;5.63;4.40;;;;;;;7.95;93.56;101321.84;7055105;40;20252;31
2023/12/15 18:24:13;;;;;;;6.73;4.97;;;;;;;7.96;93.25;101320.91;7227287;40;20254;31
2023/12/15 18:29:50;;;;;;;5.43;4.90;;;;;;;7.96;93.33;101328.97;7237824;40;20248;31
2023/12/15 18:35:26;;;;;;;5.45;4.90;;;;;;;7.98;92.37;101327.06;7186209;40;20736;31
2023/12/15 18:40:47;;;;;;;5.45;4.10;;;;;;;7.96;93.36;101334.34;7170844;40;21345;31
2023/12/15 18:46:08;;;;;;;8.25;6.20;;;;;;;7.98;93.69;101337.78;7186300;40;20243;31
2023/12/15 18:51:43;;;;;;;9.37;7.50;;;;;;;7.94;93.02;101330.03;7240505;40;20252;31
2023/12/15 18:57:18;;;;;;;8.80;6.20;;;;;;;7.87;92.72;101332.22;7273389;39;20257;31
2023/12/15 19:02:54;;;;;;;9.50;7.57;;;;;;;7.76;93.49;101336.56;7209801;40;20372;31
2023/12/15 19:08:29;;;;;;;11.50;6.85;;;;;;;7.81;93.85;101348.72;7178987;40;20821;31
2023/12/15 19:13:49;;;;;;;6.63;5.40;;;;;;;7.85;94.05;101344.03;7136506;40;20831;31
2023/12/15 19:19:24;;;;;;;6.10;5.50;;;;;;;7.85;93.73;101346.72;7155170;40;20274;31
2023/12/15 19:25:02;;;;;;;5.75;5.10;;;;;;;7.85;93.60;101352.97;7155510;40;20259;31
2023/12/15 19:35:42;;;;;;;6.87;5.47;;;;;;;7.83;92.97;101364.72;7208953;40;20278;31
2023/12/15 19:41:21;;;;;;;6.35;5.45;;;;;;;7.69;93.54;101369.13;7165760;40;20266;31
2023/12/15 19:46:56;;;;;;;6.75;5.90;;;;;;;7.70;93.90;101372.69;7143644;40;20338;31
2023/12/15 19:52:31;;;;;;;5.33;4.83;;;;;;;7.77;93.42;101382.06;7163092;40;21315;31
2023/12/15 19:58:08;;;;;;;7.17;5.47;;;;;;;7.82;92.46;101388.03;7160860;40;20242;31
2023/12/15 20:03:28;;;;;;;6.80;5.77;;;;;;;7.82;93.09;101368.38;7198634;40;20789;31
2023/12/15 20:08:48;;;;;;;6.73;5.70;;;;;;;7.79;93.42;101371.25;7208363;40;20238;31
2023/12/15 20:14:25;;;;;;;6.50;5.40;;;;;;;7.74;92.99;101371.53;7244310;40;20264;31
2023/12/15 20:19:47;;;;;;;6.65;5.60;;;;;;;7.75;93.55;101391.19;7208913;40;20316;31
2023/12/15 20:25:07;;;;;;;6.87;5.07;;;;;;;7.77;93.61;101392.81;7217983;40;20498;31
2023/12/15 20:30:44;;;;;;;6.30;4.90;;;;;;;7.74;93.34;101393.00;7202709;40;20247;31
2023/12/15 20:36:06;;;;;;;6.50;5.15;;;;;;;7.76;93.25;101407.22;7197239;40;20239;31
2023/12/15 20:41:41;;;;;;;7.00;5.55;;;;;;;7.71;93.26;101393.22;7184920;40;20330;31
2023/12/15 20:47:17;;;;;;;6.55;5.20;;;;;;;7.70;93.17;101378.94;7128740;40;20396;31
2023/12/15 20:52:54;;;;;;;6.60;5.45;;;;;;;7.69;93.35;101401.34;7198427;40;20402;31
2023/12/15 20:58:16;;;;;;;6.65;4.95;;;;;;;7.66;93.18;101406.91;7239720;40;20249;31
2023/12/15 21:03:49;;;;;;;6.03;5.30;;;;;;;7.58;93.11;101389.56;7235952;40;20892;31
2023/12/15 21:09:27;;;;;;;8.87;7.00;;;;;;;7.56;93.08;101399.50;7172450;40;20258;31
2023/12/15 21:14:46;;;;;;;10.55;6.55;;;;;;;7.58;94.17;101389.56;7149232;40;20901;31
2023/12/15 21:20:24;;;;;;;7.33;6.10;;;;;;;7.61;93.11;101426.94;7164724;40;20253;31
2023/12/15 21:25:46;;;;;;;5.75;4.55;;;;;;;7.59;92.35;101437.75;7163099;40;20270;31
2023/12/15 21:31:06;;;;;;;6.90;5.40;;;;;;;7.60;93.11;101439.47;7183795;40;20818;31
2023/12/15 21:36:42;;;;;;;6.90;5.40;;;;;;;7.64;93.00;101448.19;7178476;40;20397;31
2023/12/15 21:42:03;;;;;;;7.60;4.80;;;;;;;7.64;93.51;101429.41;7187791;40;20270;31
2023/12/15 21:47:38;;;;;;;5.37;4.53;;;;;;;7.63;92.89;101441.97;7246866;40;20406;31
2023/12/15 21:53:14;;;;;;;5.35;4.40;;;;;;;7.58;92.80;101435.19;7237826;40;20730;31
2023/12/15 21:58:35;;;;;;;6.17;5.30;;;;;;;7.65;92.97;101440.06;7237807;40;20250;31
2023/12/15 22:04:10;;;;;;;6.78;5.22;;;;;;;7.64;93.28;101422.22;7204158;40;20242;31
2023/12/15 22:09:45;;;;;;;7.00;6.00;;;;;;;7.64;93.03;101427.59;7183744;40;20257;31
2023/12/15 22:15:25;;;;;;;7.20;5.80;;;;;;;7.65;92.43;101444.56;7220397;40;20311;31
2023/12/15 22:20:58;;;;;;;6.13;5.27;;;;;;;7.66;92.37;101462.41;7210309;40;20291;31
2023/12/15 22:26:37;;;;;;;6.95;5.60;;;;;;;7.65;92.86;101455.31;7176176;40;20290;31
2023/12/15 22:32:11;;;;;;;7.40;5.85;;;;;;;7.65;93.01;101455.31;7177189;40;20243;31
2023/12/15 22:37:46;;;;;;;6.67;5.60;;;;;;;7.58;92.13;101445.91;7178973;40;20775;31
2023/12/15 22:43:22;;;;;;;7.70;5.40;;;;;;;7.55;92.32;101465.72;7191522;40;20707;31
2023/12/15 22:48:44;;;;;;;6.30;5.15;;;;;;;7.58;92.49;101484.34;7187749;40;21396;31
2023/12/15 22:54:19;;;;;;;6.77;5.53;;;;;;;7.56;92.35;101475.50;7169350;40;22003;31
2023/12/15 22:59:55;;;;;;;6.63;5.93;;;;;;;7.51;92.62;101464.19;7149028;40;20302;31
2023/12/15 23:05:32;;;;;;;8.20;6.10;;;;;;;7.55;92.46;101462.16;7123238;40;20402;31
2023/12/15 23:11:08;;;;;;;9.50;7.55;;;;;;;7.46;92.81;101430.56;7176703;40;20243;31
2023/12/15 23:16:41;;;;;;;9.90;8.05;;;;;;;7.44;93.20;101437.81;7176435;40;20262;31
2023/12/15 23:22:15;;;;;;;9.70;6.80;;;;;;;7.34;93.24;101445.53;7168878;40;20337;31
2023/12/15 23:27:36;;;;;;;9.00;6.70;;;;;;;7.29;92.86;101477.13;7160121;40;20392;31
2023/12/15 23:33:12;;;;;;;8.03;6.67;;;;;;;7.27;92.97;101472.81;7178861;40;21415;31
2023/12/15 23:38:48;;;;;;;8.90;5.75;;;;;;;7.09;94.33;101488.16;7186352;40;20239;31
2023/12/15 23:44:08;;;;;;;8.10;5.50;;;;;;;7.07;94.55;101492.72;7163405;40;20966;31
2023/12/15 23:49:44;;;;;;;11.33;6.40;;;;;;;7.07;95.28;101498.09;7192428;40;21321;31
2023/12/15 23:55:20;;;;;;;7.50;5.63;;;;;;;7.14;93.67;101478.91;7238865;40;20245;31
